sensor_id;sensor_type;location;lat;lon;timestamp;P1;durP1;ratioP1;P2;durP2;ratioP2
17177;SDS011;8704;52.006;4.374;2024-01-15T00:01:01;9.32;;;2.10;;
17177;SDS011;8704;52.006;4.374;2024-01-15T00:03:30;12.50;;;2.20;;
17177;SDS011;8704;52.006;4.374;2024-01-15T00:05:58;16.65;;;2.45;;
17177;SDS011;8704;52.006;4.374;2024-01-15T00:08:26;8.77;;;1.88;;
17177;SDS011;8704;52.006;4.374;2024-01-15T00:10:54;7.72;;;1.50;;
17177;SDS011;8704;52.006;4.374;2024-01-15T00:13:22;7.93;;;2.08;;
17177;SDS011;8704;52.006;4.374;2024-01-15T00:15:52;9.23;;;1.98;;
17177;SDS011;8704;52.006;4.374;2024-01-15T00:18:20;6.90;;;1.80;;
17177;SDS011;8704;52.006;4.374;2024-01-15T00:20:48;14.77;;;1.90;;
17177;SDS011;8704;52.006;4.374;2024-01-15T00:23:16;10.18;;;2.00;;
17177;SDS011;8704;52.006;4.374;2024-01-15T00:25:44;12.77;;;2.08;;
17177;SDS011;8704;52.006;4.374;2024-01-15T00:28:12;11.35;;;2.70;;
17177;SDS011;8704;52.006;4.374;2024-01-15T00:30:40;12.15;;;1.35;;
17177;SDS011;8704;52.006;4.374;2024-01-15T00:33:10;9.80;;;1.95;;
17177;SDS011;8704;52.006;4.374;2024-01-15T00:35:39;12.63;;;2.30;;
17177;SDS011;8704;52.006;4.374;2024-01-15T00:38:07;12.52;;;2.40;;
17177;SDS011;8704;52.006;4.374;2024-01-15T00:40:35;9.77;;;2.28;;
17177;SDS011;8704;52.006;4.374;2024-01-15T00:43:03;12.73;;;2.80;;
17177;SDS011;8704;52.006;4.374;2024-01-15T00:45:33;13.23;;;2.40;;
17177;SDS011;8704;52.006;4.374;2024-01-15T00:48:02;10.85;;;2.08;;
17177;SDS011;8704;52.006;4.374;2024-01-15T00:50:32;12.38;;;2.20;;
17177;SDS011;8704;52.006;4.374;2024-01-15T00:53:00;10.93;;;2.05;;
17177;SDS011;8704;52.006;4.374;2024-01-15T00:55:28;15.20;;;2.33;;
17177;SDS011;8704;52.006;4.374;2024-01-15T00:57:56;8.63;;;1.70;;
17177;SDS011;8704;52.006;4.374;2024-01-15T01:00:24;9.30;;;1.70;;
17177;SDS011;8704;52.006;4.374;2024-01-15T01:02:53;9.20;;;1.90;;
17177;SDS011;8704;52.006;4.374;2024-01-15T01:05:21;11.65;;;2.13;;
17177;SDS011;8704;52.006;4.374;2024-01-15T01:07:50;12.48;;;1.98;;
17177;SDS011;8704;52.006;4.374;2024-01-15T01:10:18;5.57;;;1.42;;
17177;SDS011;8704;52.006;4.374;2024-01-15T01:12:46;9.68;;;1.52;;
17177;SDS011;8704;52.006;4.374;2024-01-15T01:15:15;8.65;;;1.70;;
17177;SDS011;8704;52.006;4.374;2024-01-15T01:17:43;8.88;;;1.73;;
17177;SDS011;8704;52.006;4.374;2024-01-15T01:20:11;10.00;;;1.60;;
17177;SDS011;8704;52.006;4.374;2024-01-15T01:22:44;9.55;;;1.75;;
17177;SDS011;8704;52.006;4.374;2024-01-15T01:25:14;11.90;;;2.38;;
17177;SDS011;8704;52.006;4.374;2024-01-15T01:27:42;12.77;;;2.60;;
17177;SDS011;8704;52.006;4.374;2024-01-15T01:30:10;11.38;;;2.30;;
17177;SDS011;8704;52.006;4.374;2024-01-15T01:32:38;16.88;;;2.45;;
17177;SDS011;8704;52.006;4.374;2024-01-15T01:35:07;10.68;;;2.25;;
17177;SDS011;8704;52.006;4.374;2024-01-15T01:37:35;15.90;;;2.40;;
17177;SDS011;8704;52.006;4.374;2024-01-15T01:40:03;13.85;;;2.70;;
17177;SDS011;8704;52.006;4.374;2024-01-15T01:42:33;11.20;;;2.17;;
17177;SDS011;8704;52.006;4.374;2024-01-15T01:45:02;9.50;;;1.90;;
17177;SDS011;8704;52.006;4.374;2024-01-15T01:47:30;10.90;;;2.40;;
17177;SDS011;8704;52.006;4.374;2024-01-15T01:49:59;10.23;;;2.13;;
17177;SDS011;8704;52.006;4.374;2024-01-15T01:52:28;13.25;;;2.20;;
17177;SDS011;8704;52.006;4.374;2024-01-15T01:54:56;13.60;;;2.58;;
17177;SDS011;8704;52.006;4.374;2024-01-15T01:57:25;11.20;;;2.53;;
17177;SDS011;8704;52.006;4.374;2024-01-15T01:59:56;9.77;;;2.60;;
17177;SDS011;8704;52.006;4.374;2024-01-15T02:02:25;7.95;;;2.17;;
17177;SDS011;8704;52.006;4.374;2024-01-15T02:04:53;9.20;;;2.42;;
17177;SDS011;8704;52.006;4.374;2024-01-15T02:07:21;6.43;;;1.90;;
17177;SDS011;8704;52.006;4.374;2024-01-15T02:09:51;4.45;;;1.65;;
17177;SDS011;8704;52.006;4.374;2024-01-15T02:12:19;7.03;;;1.52;;
17177;SDS011;8704;52.006;4.374;2024-01-15T02:14:47;6.38;;;1.42;;
17177;SDS011;8704;52.006;4.374;2024-01-15T02:17:17;7.72;;;1.35;;
17177;SDS011;8704;52.006;4.374;2024-01-15T02:19:45;4.82;;;1.02;;
17177;SDS011;8704;52.006;4.374;2024-01-15T02:22:13;5.10;;;1.40;;
17177;SDS011;8704;52.006;4.374;2024-01-15T02:24:43;3.45;;;0.90;;
17177;SDS011;8704;52.006;4.374;2024-01-15T02:27:11;3.95;;;1.10;;
17177;SDS011;8704;52.006;4.374;2024-01-15T02:29:39;5.00;;;0.93;;
17177;SDS011;8704;52.006;4.374;2024-01-15T02:32:08;4.35;;;1.30;;
17177;SDS011;8704;52.006;4.374;2024-01-15T02:34:36;5.40;;;1.15;;
17177;SDS011;8704;52.006;4.374;2024-01-15T02:37:04;6.70;;;1.05;;
17177;SDS011;8704;52.006;4.374;2024-01-15T02:39:32;5.30;;;1.00;;
17177;SDS011;8704;52.006;4.374;2024-01-15T02:42:02;4.70;;;1.00;;
17177;SDS011;8704;52.006;4.374;2024-01-15T02:44:30;6.75;;;1.38;;
17177;SDS011;8704;52.006;4.374;2024-01-15T02:46:58;5.93;;;1.25;;
17177;SDS011;8704;52.006;4.374;2024-01-15T02:49:26;6.75;;;1.50;;
17177;SDS011;8704;52.006;4.374;2024-01-15T02:51:54;4.07;;;1.30;;
17177;SDS011;8704;52.006;4.374;2024-01-15T02:54:23;3.90;;;1.50;;
17177;SDS011;8704;52.006;4.374;2024-01-15T02:56:51;5.47;;;1.60;;
17177;SDS011;8704;52.006;4.374;2024-01-15T02:59:20;7.78;;;2.08;;
17177;SDS011;8704;52.006;4.374;2024-01-15T03:01:48;6.00;;;1.50;;
17177;SDS011;8704;52.006;4.374;2024-01-15T03:04:16;6.72;;;1.60;;
17177;SDS011;8704;52.006;4.374;2024-01-15T03:06:44;5.90;;;2.10;;
17177;SDS011;8704;52.006;4.374;2024-01-15T03:09:12;10.45;;;2.35;;
17177;SDS011;8704;52.006;4.374;2024-01-15T03:11:41;5.35;;;2.30;;
17177;SDS011;8704;52.006;4.374;2024-01-15T03:14:09;4.55;;;2.40;;
17177;SDS011;8704;52.006;4.374;2024-01-15T03:16:38;8.55;;;2.05;;
17177;SDS011;8704;52.006;4.374;2024-01-15T03:19:06;6.38;;;2.55;;
17177;SDS011;8704;52.006;4.374;2024-01-15T03:21:34;8.90;;;3.95;;
17177;SDS011;8704;52.006;4.374;2024-01-15T03:24:03;11.82;;;3.10;;
17177;SDS011;8704;52.006;4.374;2024-01-15T03:26:31;8.93;;;3.58;;
17177;SDS011;8704;52.006;4.374;2024-01-15T03:28:59;9.10;;;3.10;;
17177;SDS011;8704;52.006;4.374;2024-01-15T03:31:27;8.70;;;3.25;;
17177;SDS011;8704;52.006;4.374;2024-01-15T03:33:57;9.38;;;3.70;;
17177;SDS011;8704;52.006;4.374;2024-01-15T03:36:25;8.40;;;3.45;;
17177;SDS011;8704;52.006;4.374;2024-01-15T03:38:53;7.70;;;3.17;;
17177;SDS011;8704;52.006;4.374;2024-01-15T03:41:21;11.70;;;3.92;;
17177;SDS011;8704;52.006;4.374;2024-01-15T03:43:49;8.18;;;4.40;;
17177;SDS011;8704;52.006;4.374;2024-01-15T03:46:17;10.07;;;4.28;;
17177;SDS011;8704;52.006;4.374;2024-01-15T03:48:45;9.02;;;3.58;;
17177;SDS011;8704;52.006;4.374;2024-01-15T03:51:16;6.20;;;3.97;;
17177;SDS011;8704;52.006;4.374;2024-01-15T03:53:45;10.68;;;4.50;;
17177;SDS011;8704;52.006;4.374;2024-01-15T03:56:13;10.73;;;4.20;;
17177;SDS011;8704;52.006;4.374;2024-01-15T03:58:41;6.80;;;4.50;;
17177;SDS011;8704;52.006;4.374;2024-01-15T04:01:09;10.73;;;4.85;;
17177;SDS011;8704;52.006;4.374;2024-01-15T04:03:38;8.38;;;5.25;;
17177;SDS011;8704;52.006;4.374;2024-01-15T04:06:06;5.80;;;4.47;;
17177;SDS011;8704;52.006;4.374;2024-01-15T04:08:36;10.00;;;6.25;;
17177;SDS011;8704;52.006;4.374;2024-01-15T04:11:04;9.63;;;5.07;;
17177;SDS011;8704;52.006;4.374;2024-01-15T04:13:32;4.47;;;2.55;;
17177;SDS011;8704;52.006;4.374;2024-01-15T04:16:00;7.03;;;3.03;;
17177;SDS011;8704;52.006;4.374;2024-01-15T04:18:29;6.43;;;3.55;;
17177;SDS011;8704;52.006;4.374;2024-01-15T04:20:57;4.97;;;3.53;;
17177;SDS011;8704;52.006;4.374;2024-01-15T04:23:25;7.95;;;4.97;;
17177;SDS011;8704;52.006;4.374;2024-01-15T04:25:55;7.43;;;4.72;;
17177;SDS011;8704;52.006;4.374;2024-01-15T04:28:23;10.68;;;5.03;;
17177;SDS011;8704;52.006;4.374;2024-01-15T04:30:51;7.20;;;3.50;;
17177;SDS011;8704;52.006;4.374;2024-01-15T04:33:19;8.85;;;3.85;;
17177;SDS011;8704;52.006;4.374;2024-01-15T04:35:47;6.15;;;3.40;;
17177;SDS011;8704;52.006;4.374;2024-01-15T04:38:16;5.35;;;2.75;;
17177;SDS011;8704;52.006;4.374;2024-01-15T04:40:44;4.20;;;2.92;;
17177;SDS011;8704;52.006;4.374;2024-01-15T04:43:14;4.40;;;3.20;;
17177;SDS011;8704;52.006;4.374;2024-01-15T04:45:42;3.88;;;3.22;;
17177;SDS011;8704;52.006;4.374;2024-01-15T04:48:10;3.90;;;3.53;;
17177;SDS011;8704;52.006;4.374;2024-01-15T04:50:39;4.32;;;3.92;;
17177;SDS011;8704;52.006;4.374;2024-01-15T04:53:07;5.15;;;4.65;;
17177;SDS011;8704;52.006;4.374;2024-01-15T04:55:38;5.82;;;4.95;;
17177;SDS011;8704;52.006;4.374;2024-01-15T04:58:06;9.43;;;6.00;;
17177;SDS011;8704;52.006;4.374;2024-01-15T05:00:36;5.88;;;5.30;;
17177;SDS011;8704;52.006;4.374;2024-01-15T05:03:04;6.82;;;5.82;;
17177;SDS011;8704;52.006;4.374;2024-01-15T05:05:32;6.63;;;5.50;;
17177;SDS011;8704;52.006;4.374;2024-01-15T05:08:01;8.52;;;6.88;;
17177;SDS011;8704;52.006;4.374;2024-01-15T05:10:29;9.00;;;8.30;;
17177;SDS011;8704;52.006;4.374;2024-01-15T05:12:57;9.68;;;8.90;;
17177;SDS011;8704;52.006;4.374;2024-01-15T05:15:25;9.98;;;9.13;;
17177;SDS011;8704;52.006;4.374;2024-01-15T05:17:55;10.38;;;9.45;;
17177;SDS011;8704;52.006;4.374;2024-01-15T05:20:23;12.48;;;11.38;;
17177;SDS011;8704;52.006;4.374;2024-01-15T05:22:51;13.02;;;12.02;;
17177;SDS011;8704;52.006;4.374;2024-01-15T05:25:19;15.10;;;13.80;;
17177;SDS011;8704;52.006;4.374;2024-01-15T05:27:47;14.18;;;10.75;;
17177;SDS011;8704;52.006;4.374;2024-01-15T05:30:16;8.57;;;7.53;;
17177;SDS011;8704;52.006;4.374;2024-01-15T05:32:44;10.73;;;9.40;;
17177;SDS011;8704;52.006;4.374;2024-01-15T05:35:13;9.43;;;8.63;;
17177;SDS011;8704;52.006;4.374;2024-01-15T05:37:43;11.65;;;9.23;;
17177;SDS011;8704;52.006;4.374;2024-01-15T05:40:12;11.02;;;8.32;;
17177;SDS011;8704;52.006;4.374;2024-01-15T05:42:41;8.35;;;6.47;;
17177;SDS011;8704;52.006;4.374;2024-01-15T05:45:09;18.95;;;8.23;;
17177;SDS011;8704;52.006;4.374;2024-01-15T05:47:37;9.65;;;7.57;;
17177;SDS011;8704;52.006;4.374;2024-01-15T05:50:06;9.73;;;8.93;;
17177;SDS011;8704;52.006;4.374;2024-01-15T05:52:35;12.40;;;9.90;;
17177;SDS011;8704;52.006;4.374;2024-01-15T05:55:04;11.20;;;9.60;;
17177;SDS011;8704;52.006;4.374;2024-01-15T05:57:32;9.80;;;6.53;;
17177;SDS011;8704;52.006;4.374;2024-01-15T06:00:00;9.70;;;4.53;;
17177;SDS011;8704;52.006;4.374;2024-01-15T06:02:29;13.32;;;4.85;;
17177;SDS011;8704;52.006;4.374;2024-01-15T06:04:57;7.63;;;3.72;;
17177;SDS011;8704;52.006;4.374;2024-01-15T06:07:25;4.38;;;2.80;;
17177;SDS011;8704;52.006;4.374;2024-01-15T06:09:55;6.47;;;3.03;;
17177;SDS011;8704;52.006;4.374;2024-01-15T06:12:23;3.63;;;3.33;;
17177;SDS011;8704;52.006;4.374;2024-01-15T06:14:51;4.50;;;3.50;;
17177;SDS011;8704;52.006;4.374;2024-01-15T06:17:19;5.70;;;4.72;;
17177;SDS011;8704;52.006;4.374;2024-01-15T06:19:47;4.63;;;4.03;;
17177;SDS011;8704;52.006;4.374;2024-01-15T06:22:16;5.50;;;4.90;;
17177;SDS011;8704;52.006;4.374;2024-01-15T06:24:45;7.50;;;6.55;;
17177;SDS011;8704;52.006;4.374;2024-01-15T06:27:14;8.20;;;7.38;;
17177;SDS011;8704;52.006;4.374;2024-01-15T06:29:44;8.43;;;7.78;;
17177;SDS011;8704;52.006;4.374;2024-01-15T06:32:16;10.55;;;9.30;;
17177;SDS011;8704;52.006;4.374;2024-01-15T06:34:44;15.43;;;11.30;;
17177;SDS011;8704;52.006;4.374;2024-01-15T06:37:12;13.00;;;11.70;;
17177;SDS011;8704;52.006;4.374;2024-01-15T06:39:40;15.18;;;13.93;;
17177;SDS011;8704;52.006;4.374;2024-01-15T06:42:09;15.77;;;14.05;;
17177;SDS011;8704;52.006;4.374;2024-01-15T06:44:38;16.30;;;15.13;;
17177;SDS011;8704;52.006;4.374;2024-01-15T06:47:06;17.23;;;15.82;;
17177;SDS011;8704;52.006;4.374;2024-01-15T06:49:34;17.90;;;16.55;;
17177;SDS011;8704;52.006;4.374;2024-01-15T06:52:03;20.40;;;18.92;;
17177;SDS011;8704;52.006;4.374;2024-01-15T06:54:32;21.60;;;20.35;;
17177;SDS011;8704;52.006;4.374;2024-01-15T06:57:00;18.30;;;16.90;;
17177;SDS011;8704;52.006;4.374;2024-01-15T06:59:28;19.63;;;18.00;;
17177;SDS011;8704;52.006;4.374;2024-01-15T07:01:57;12.50;;;9.40;;
17177;SDS011;8704;52.006;4.374;2024-01-15T07:04:25;13.20;;;7.78;;
17177;SDS011;8704;52.006;4.374;2024-01-15T07:06:53;8.85;;;7.78;;
17177;SDS011;8704;52.006;4.374;2024-01-15T07:09:22;13.60;;;7.15;;
17177;SDS011;8704;52.006;4.374;2024-01-15T07:11:50;10.90;;;7.72;;
17177;SDS011;8704;52.006;4.374;2024-01-15T07:14:18;12.43;;;8.57;;
17177;SDS011;8704;52.006;4.374;2024-01-15T07:16:46;12.07;;;8.38;;
17177;SDS011;8704;52.006;4.374;2024-01-15T07:19:16;14.48;;;9.77;;
17177;SDS011;8704;52.006;4.374;2024-01-15T07:21:44;12.95;;;10.35;;
17177;SDS011;8704;52.006;4.374;2024-01-15T07:24:12;12.30;;;11.10;;
17177;SDS011;8704;52.006;4.374;2024-01-15T07:26:40;7.95;;;7.22;;
17177;SDS011;8704;52.006;4.374;2024-01-15T07:29:08;12.55;;;8.30;;
17177;SDS011;8704;52.006;4.374;2024-01-15T07:31:36;12.50;;;8.18;;
17177;SDS011;8704;52.006;4.374;2024-01-15T07:34:05;6.82;;;4.88;;
17177;SDS011;8704;52.006;4.374;2024-01-15T07:36:34;13.05;;;6.05;;
17177;SDS011;8704;52.006;4.374;2024-01-15T07:39:02;9.05;;;3.97;;
17177;SDS011;8704;52.006;4.374;2024-01-15T07:41:30;15.20;;;4.50;;
17177;SDS011;8704;52.006;4.374;2024-01-15T07:43:58;13.65;;;4.75;;
17177;SDS011;8704;52.006;4.374;2024-01-15T07:46:26;9.45;;;3.92;;
17177;SDS011;8704;52.006;4.374;2024-01-15T07:48:55;8.50;;;2.85;;
17177;SDS011;8704;52.006;4.374;2024-01-15T07:51:24;9.18;;;2.83;;
17177;SDS011;8704;52.006;4.374;2024-01-15T07:53:54;9.82;;;3.92;;
17177;SDS011;8704;52.006;4.374;2024-01-15T07:56:22;8.75;;;3.45;;
17177;SDS011;8704;52.006;4.374;2024-01-15T07:58:50;10.48;;;4.28;;
17177;SDS011;8704;52.006;4.374;2024-01-15T08:01:18;12.32;;;5.80;;
17177;SDS011;8704;52.006;4.374;2024-01-15T08:03:47;9.73;;;3.58;;
17177;SDS011;8704;52.006;4.374;2024-01-15T08:06:15;7.22;;;2.90;;
17177;SDS011;8704;52.006;4.374;2024-01-15T08:08:43;9.75;;;2.97;;
17177;SDS011;8704;52.006;4.374;2024-01-15T08:11:13;4.47;;;1.63;;
17177;SDS011;8704;52.006;4.374;2024-01-15T08:13:41;7.00;;;2.33;;
17177;SDS011;8704;52.006;4.374;2024-01-15T08:16:09;4.97;;;1.77;;
17177;SDS011;8704;52.006;4.374;2024-01-15T08:18:37;5.93;;;1.75;;
17177;SDS011;8704;52.006;4.374;2024-01-15T08:21:05;5.45;;;1.80;;
17177;SDS011;8704;52.006;4.374;2024-01-15T08:23:34;8.13;;;2.03;;
17177;SDS011;8704;52.006;4.374;2024-01-15T08:26:02;9.43;;;2.35;;
17177;SDS011;8704;52.006;4.374;2024-01-15T08:28:32;6.28;;;1.40;;
17177;SDS011;8704;52.006;4.374;2024-01-15T08:31:02;5.32;;;1.80;;
17177;SDS011;8704;52.006;4.374;2024-01-15T08:33:31;8.77;;;2.28;;
17177;SDS011;8704;52.006;4.374;2024-01-15T08:35:59;6.47;;;2.00;;
17177;SDS011;8704;52.006;4.374;2024-01-15T08:38:27;8.70;;;2.10;;
17177;SDS011;8704;52.006;4.374;2024-01-15T08:40:55;9.27;;;2.03;;
17177;SDS011;8704;52.006;4.374;2024-01-15T08:43:25;8.13;;;2.00;;
17177;SDS011;8704;52.006;4.374;2024-01-15T08:45:54;5.30;;;1.77;;
17177;SDS011;8704;52.006;4.374;2024-01-15T08:48:23;5.82;;;1.80;;
17177;SDS011;8704;52.006;4.374;2024-01-15T08:50:53;6.90;;;2.03;;
17177;SDS011;8704;52.006;4.374;2024-01-15T08:53:22;5.32;;;1.48;;
17177;SDS011;8704;52.006;4.374;2024-01-15T08:55:51;5.10;;;1.58;;
17177;SDS011;8704;52.006;4.374;2024-01-15T08:58:19;9.10;;;1.70;;
17177;SDS011;8704;52.006;4.374;2024-01-15T09:00:47;7.32;;;1.90;;
17177;SDS011;8704;52.006;4.374;2024-01-15T09:03:16;8.75;;;1.80;;
17177;SDS011;8704;52.006;4.374;2024-01-15T09:05:44;5.07;;;1.88;;
17177;SDS011;8704;52.006;4.374;2024-01-15T09:08:13;10.40;;;3.17;;
17177;SDS011;8704;52.006;4.374;2024-01-15T09:10:41;12.18;;;3.42;;
17177;SDS011;8704;52.006;4.374;2024-01-15T09:13:09;6.75;;;2.67;;
17177;SDS011;8704;52.006;4.374;2024-01-15T09:15:37;11.32;;;3.50;;
17177;SDS011;8704;52.006;4.374;2024-01-15T09:18:05;9.00;;;3.42;;
17177;SDS011;8704;52.006;4.374;2024-01-15T09:20:35;10.18;;;2.85;;
17177;SDS011;8704;52.006;4.374;2024-01-15T09:23:04;12.68;;;4.35;;
17177;SDS011;8704;52.006;4.374;2024-01-15T09:25:32;7.90;;;3.95;;
17177;SDS011;8704;52.006;4.374;2024-01-15T09:28:00;11.40;;;4.28;;
17177;SDS011;8704;52.006;4.374;2024-01-15T09:30:29;9.05;;;2.40;;
17177;SDS011;8704;52.006;4.374;2024-01-15T09:32:57;6.70;;;2.63;;
17177;SDS011;8704;52.006;4.374;2024-01-15T09:35:25;12.75;;;2.92;;
17177;SDS011;8704;52.006;4.374;2024-01-15T09:37:55;7.60;;;2.83;;
17177;SDS011;8704;52.006;4.374;2024-01-15T09:40:23;6.65;;;2.65;;
17177;SDS011;8704;52.006;4.374;2024-01-15T09:42:52;17.27;;;4.15;;
17177;SDS011;8704;52.006;4.374;2024-01-15T09:45:21;12.15;;;3.90;;
17177;SDS011;8704;52.006;4.374;2024-01-15T09:47:49;11.90;;;4.15;;
17177;SDS011;8704;52.006;4.374;2024-01-15T09:50:18;5.95;;;3.88;;
17177;SDS011;8704;52.006;4.374;2024-01-15T09:52:46;9.45;;;3.42;;
17177;SDS011;8704;52.006;4.374;2024-01-15T09:55:18;6.97;;;4.22;;
17177;SDS011;8704;52.006;4.374;2024-01-15T09:57:46;9.13;;;3.90;;
17177;SDS011;8704;52.006;4.374;2024-01-15T10:00:15;10.60;;;4.20;;
17177;SDS011;8704;52.006;4.374;2024-01-15T10:02:45;4.32;;;2.90;;
17177;SDS011;8704;52.006;4.374;2024-01-15T10:05:14;8.93;;;3.78;;
17177;SDS011;8704;52.006;4.374;2024-01-15T10:07:42;10.43;;;4.00;;
17177;SDS011;8704;52.006;4.374;2024-01-15T10:10:13;7.53;;;4.07;;
17177;SDS011;8704;52.006;4.374;2024-01-15T10:12:42;5.78;;;2.65;;
17177;SDS011;8704;52.006;4.374;2024-01-15T10:15:10;7.13;;;4.53;;
17177;SDS011;8704;52.006;4.374;2024-01-15T10:17:40;11.90;;;7.93;;
17177;SDS011;8704;52.006;4.374;2024-01-15T10:20:09;7.55;;;3.40;;
17177;SDS011;8704;52.006;4.374;2024-01-15T10:22:40;6.55;;;3.30;;
17177;SDS011;8704;52.006;4.374;2024-01-15T10:25:10;5.50;;;2.83;;
17177;SDS011;8704;52.006;4.374;2024-01-15T10:27:39;4.68;;;2.00;;
17177;SDS011;8704;52.006;4.374;2024-01-15T10:30:09;19.85;;;2.25;;
17177;SDS011;8704;52.006;4.374;2024-01-15T10:32:40;4.32;;;1.90;;
17177;SDS011;8704;52.006;4.374;2024-01-15T10:35:08;11.73;;;2.92;;
17177;SDS011;8704;52.006;4.374;2024-01-15T10:37:37;4.35;;;1.80;;
17177;SDS011;8704;52.006;4.374;2024-01-15T10:40:06;9.63;;;2.75;;
17177;SDS011;8704;52.006;4.374;2024-01-15T10:42:34;9.23;;;2.33;;
17177;SDS011;8704;52.006;4.374;2024-01-15T10:45:02;4.32;;;1.77;;
17177;SDS011;8704;52.006;4.374;2024-01-15T10:47:32;6.47;;;2.08;;
17177;SDS011;8704;52.006;4.374;2024-01-15T10:50:01;7.05;;;1.65;;
17177;SDS011;8704;52.006;4.374;2024-01-15T10:52:29;8.82;;;1.73;;
17177;SDS011;8704;52.006;4.374;2024-01-15T10:54:57;5.35;;;1.77;;
17177;SDS011;8704;52.006;4.374;2024-01-15T10:57:34;6.32;;;2.00;;
17177;SDS011;8704;52.006;4.374;2024-01-15T11:00:03;3.38;;;1.35;;
17177;SDS011;8704;52.006;4.374;2024-01-15T11:02:34;10.65;;;2.70;;
17177;SDS011;8704;52.006;4.374;2024-01-15T11:05:04;9.77;;;2.53;;
17177;SDS011;8704;52.006;4.374;2024-01-15T11:07:32;13.68;;;2.85;;
17177;SDS011;8704;52.006;4.374;2024-01-15T11:10:03;5.82;;;1.80;;
17177;SDS011;8704;52.006;4.374;2024-01-15T11:12:31;6.22;;;1.58;;
17177;SDS011;8704;52.006;4.374;2024-01-15T11:15:03;8.10;;;1.75;;
17177;SDS011;8704;52.006;4.374;2024-01-15T11:20:29;6.50;;;1.58;;
17177;SDS011;8704;52.006;4.374;2024-01-15T11:22:59;8.10;;;1.90;;
17177;SDS011;8704;52.006;4.374;2024-01-15T11:25:34;10.13;;;1.70;;
17177;SDS011;8704;52.006;4.374;2024-01-15T11:28:03;11.90;;;2.25;;
17177;SDS011;8704;52.006;4.374;2024-01-15T11:30:32;13.13;;;1.52;;
17177;SDS011;8704;52.006;4.374;2024-01-15T11:33:04;13.02;;;2.67;;
17177;SDS011;8704;52.006;4.374;2024-01-15T11:35:49;4.57;;;1.40;;
17177;SDS011;8704;52.006;4.374;2024-01-15T11:38:26;9.70;;;1.58;;
17177;SDS011;8704;52.006;4.374;2024-01-15T11:40:55;3.50;;;1.00;;
17177;SDS011;8704;52.006;4.374;2024-01-15T11:43:25;5.72;;;1.20;;
17177;SDS011;8704;52.006;4.374;2024-01-15T11:45:54;8.13;;;1.80;;
17177;SDS011;8704;52.006;4.374;2024-01-15T11:48:25;4.38;;;1.73;;
17177;SDS011;8704;52.006;4.374;2024-01-15T11:51:10;4.72;;;1.77;;
17177;SDS011;8704;52.006;4.374;2024-01-15T11:53:42;7.78;;;2.47;;
17177;SDS011;8704;52.006;4.374;2024-01-15T11:56:14;9.95;;;2.95;;
17177;SDS011;8704;52.006;4.374;2024-01-15T11:58:44;9.23;;;2.70;;
17177;SDS011;8704;52.006;4.374;2024-01-15T12:01:12;7.57;;;1.85;;
17177;SDS011;8704;52.006;4.374;2024-01-15T12:03:42;4.90;;;2.15;;
17177;SDS011;8704;52.006;4.374;2024-01-15T12:06:28;7.25;;;1.67;;
17177;SDS011;8704;52.006;4.374;2024-01-15T12:09:05;7.35;;;2.10;;
17177;SDS011;8704;52.006;4.374;2024-01-15T12:11:34;6.53;;;1.60;;
17177;SDS011;8704;52.006;4.374;2024-01-15T12:14:04;9.90;;;1.58;;
17177;SDS011;8704;52.006;4.374;2024-01-15T12:16:32;7.05;;;1.40;;
17177;SDS011;8704;52.006;4.374;2024-01-15T12:19:02;7.30;;;1.90;;
17177;SDS011;8704;52.006;4.374;2024-01-15T12:21:30;6.00;;;2.08;;
17177;SDS011;8704;52.006;4.374;2024-01-15T12:23:59;5.40;;;2.08;;
17177;SDS011;8704;52.006;4.374;2024-01-15T12:26:27;10.50;;;1.88;;
17177;SDS011;8704;52.006;4.374;2024-01-15T12:28:56;5.85;;;1.70;;
17177;SDS011;8704;52.006;4.374;2024-01-15T12:31:24;8.02;;;1.70;;
17177;SDS011;8704;52.006;4.374;2024-01-15T12:33:52;9.82;;;2.42;;
17177;SDS011;8704;52.006;4.374;2024-01-15T12:36:22;4.82;;;1.45;;
17177;SDS011;8704;52.006;4.374;2024-01-15T12:38:50;9.65;;;2.22;;
17177;SDS011;8704;52.006;4.374;2024-01-15T12:41:18;18.98;;;2.90;;
17177;SDS011;8704;52.006;4.374;2024-01-15T12:43:48;17.15;;;2.70;;
17177;SDS011;8704;52.006;4.374;2024-01-15T12:46:17;11.45;;;2.95;;
17177;SDS011;8704;52.006;4.374;2024-01-15T12:48:46;11.27;;;2.88;;
17177;SDS011;8704;52.006;4.374;2024-01-15T12:51:15;12.07;;;2.47;;
17177;SDS011;8704;52.006;4.374;2024-01-15T12:53:44;9.85;;;2.92;;
17177;SDS011;8704;52.006;4.374;2024-01-15T12:56:12;13.70;;;3.55;;
17177;SDS011;8704;52.006;4.374;2024-01-15T12:58:40;10.55;;;2.08;;
17177;SDS011;8704;52.006;4.374;2024-01-15T13:01:09;17.10;;;2.40;;
17177;SDS011;8704;52.006;4.374;2024-01-15T13:03:37;15.30;;;1.98;;
17177;SDS011;8704;52.006;4.374;2024-01-15T13:06:06;11.52;;;2.60;;
17177;SDS011;8704;52.006;4.374;2024-01-15T13:08:34;9.82;;;2.40;;
17177;SDS011;8704;52.006;4.374;2024-01-15T13:11:03;10.00;;;2.58;;
17177;SDS011;8704;52.006;4.374;2024-01-15T13:13:32;8.52;;;1.33;;
17177;SDS011;8704;52.006;4.374;2024-01-15T13:16:01;4.75;;;1.30;;
17177;SDS011;8704;52.006;4.374;2024-01-15T13:18:30;3.72;;;0.85;;
17177;SDS011;8704;52.006;4.374;2024-01-15T13:20:58;4.78;;;1.02;;
17177;SDS011;8704;52.006;4.374;2024-01-15T13:23:26;4.10;;;1.27;;
17177;SDS011;8704;52.006;4.374;2024-01-15T13:25:54;5.53;;;1.30;;
17177;SDS011;8704;52.006;4.374;2024-01-15T13:28:24;5.93;;;1.40;;
17177;SDS011;8704;52.006;4.374;2024-01-15T13:30:52;5.63;;;1.38;;
17177;SDS011;8704;52.006;4.374;2024-01-15T13:33:20;4.13;;;1.60;;
17177;SDS011;8704;52.006;4.374;2024-01-15T13:35:48;6.68;;;1.90;;
17177;SDS011;8704;52.006;4.374;2024-01-15T13:38:17;6.18;;;1.75;;
17177;SDS011;8704;52.006;4.374;2024-01-15T13:40:45;7.35;;;2.28;;
17177;SDS011;8704;52.006;4.374;2024-01-15T13:43:13;10.98;;;2.63;;
17177;SDS011;8704;52.006;4.374;2024-01-15T13:45:42;7.57;;;2.20;;
17177;SDS011;8704;52.006;4.374;2024-01-15T13:48:11;9.50;;;2.63;;
17177;SDS011;8704;52.006;4.374;2024-01-15T13:50:39;14.88;;;3.35;;
17177;SDS011;8704;52.006;4.374;2024-01-15T13:53:07;10.85;;;3.92;;
17177;SDS011;8704;52.006;4.374;2024-01-15T13:55:36;15.25;;;3.33;;
17177;SDS011;8704;52.006;4.374;2024-01-15T13:58:04;13.68;;;3.40;;
17177;SDS011;8704;52.006;4.374;2024-01-15T14:00:32;13.95;;;3.22;;
17177;SDS011;8704;52.006;4.374;2024-01-15T14:03:02;17.70;;;3.50;;
17177;SDS011;8704;52.006;4.374;2024-01-15T14:05:31;11.60;;;2.42;;
17177;SDS011;8704;52.006;4.374;2024-01-15T14:07:59;6.63;;;2.05;;
17177;SDS011;8704;52.006;4.374;2024-01-15T14:10:28;11.38;;;2.38;;
17177;SDS011;8704;52.006;4.374;2024-01-15T14:12:56;10.07;;;1.92;;
17177;SDS011;8704;52.006;4.374;2024-01-15T14:15:25;7.10;;;1.17;;
17177;SDS011;8704;52.006;4.374;2024-01-15T14:17:54;11.60;;;2.17;;
17177;SDS011;8704;52.006;4.374;2024-01-15T14:20:23;8.85;;;1.52;;
17177;SDS011;8704;52.006;4.374;2024-01-15T14:22:51;9.23;;;2.08;;
17177;SDS011;8704;52.006;4.374;2024-01-15T14:25:20;9.30;;;1.88;;
17177;SDS011;8704;52.006;4.374;2024-01-15T14:27:48;9.55;;;1.40;;
17177;SDS011;8704;52.006;4.374;2024-01-15T14:30:16;3.53;;;1.00;;
17177;SDS011;8704;52.006;4.374;2024-01-15T14:32:45;7.03;;;1.80;;
17177;SDS011;8704;52.006;4.374;2024-01-15T14:35:13;6.05;;;1.92;;
17177;SDS011;8704;52.006;4.374;2024-01-15T14:37:42;8.32;;;1.70;;
17177;SDS011;8704;52.006;4.374;2024-01-15T14:40:12;7.70;;;2.15;;
17177;SDS011;8704;52.006;4.374;2024-01-15T14:42:43;7.50;;;1.50;;
17177;SDS011;8704;52.006;4.374;2024-01-15T14:45:11;12.10;;;1.83;;
17177;SDS011;8704;52.006;4.374;2024-01-15T14:47:41;3.38;;;1.27;;
17177;SDS011;8704;52.006;4.374;2024-01-15T14:50:10;10.93;;;1.83;;
17177;SDS011;8704;52.006;4.374;2024-01-15T14:52:39;8.82;;;2.00;;
17177;SDS011;8704;52.006;4.374;2024-01-15T14:55:09;7.55;;;1.33;;
17177;SDS011;8704;52.006;4.374;2024-01-15T14:57:38;6.85;;;1.52;;
17177;SDS011;8704;52.006;4.374;2024-01-15T15:00:06;11.02;;;1.80;;
17177;SDS011;8704;52.006;4.374;2024-01-15T15:02:35;5.88;;;1.30;;
17177;SDS011;8704;52.006;4.374;2024-01-15T15:05:04;16.73;;;2.58;;
17177;SDS011;8704;52.006;4.374;2024-01-15T15:07:33;12.80;;;2.40;;